Time,TemperatureF,DewpointF,PressureIn,WindDirection,WindDirectionDegrees,WindSpeedMPH,WindSpeedGustMPH,Humidity,HourlyPrecipIn,Conditions,Clouds,dailyrainin,SoftwareType,DateUTC
2013-04-26 00:00:00,73.2,58.5,30.22,NNW,346,3.4,3.4,60,0.00,CLR,,0.00,WeatherDisplay:10.37,2013-04-26 04:00:00,
2013-04-26 00:01:00,73.2,58.5,30.22,NNE,17,3.4,3.4,60,0.00,CLR,,0.00,WeatherDisplay:10.37,2013-04-26 04:01:00,
2013-04-26 00:02:00,73.2,58.5,30.22,North,6,3.4,3.4,60,0.00,CLR,,0.00,WeatherDisplay:10.37,2013-04-26 04:02:00,
2013-04-26 00:03:00,73.2,58.5,30.22,NNE,24,3.4,0.0,60,0.00,CLR,,0.00,WeatherDisplay:10.37,2013-04-26 04:03:00,
2013-04-26 00:08:00,73.2,58.5,30.22,ESE,104,4.0,4.0,60,0.00,CLR,,0.00,WeatherDisplay:10.37,2013-04-26 04:08:00,
2013-04-26 00:16:00,72.9,58.6,30.22,NE,42,3.1,0.0,61,0.00,CLR,,0.00,WeatherDisplay:10.37,2013-04-26 04:16:00,
2013-04-26 00:21:00,72.9,59.1,30.22,East,84,0.0,0.0,62,0.00,CLR,,0.00,WeatherDisplay:10.37,2013-04-26 04:21:00,
2013-04-26 00:31:00,72.9,59.5,30.22,ESE,110,4.0,0.0,63,0.00,CLR,,0.00,WeatherDisplay:10.37,2013-04-26 04:31:00,
2013-04-26 00:36:00,72.7,59.4,30.22,NE,53,3.6,3.6,63,0.00,CLR,,0.00,WeatherDisplay:10.37,2013-04-26 04:36:00,
2013-04-26 00:46:00,72.5,59.6,30.22,East,99,3.4,3.4,64,0.00,CLR,,0.00,WeatherDisplay:10.37,2013-04-26 04:46:00,
2013-04-26 00:51:00,72.5,59.6,30.22,East,100,3.4,3.4,64,0.00,CLR,,0.00,WeatherDisplay:10.37,2013-04-26 04:51:00,
2013-04-26 01:00:00,72.3,59.9,30.22,NW,323,4.0,4.0,65,0.00,CLR,,0.00,WeatherDisplay:10.37,2013-04-26 05:00:00,
2013-04-26 01:01:00,72.1,59.7,30.22,WNW,282,0.0,0.0,65,0.00,CLR,,0.00,WeatherDisplay:10.37,2013-04-26 05:01:00,
2013-04-26 01:05:00,72.3,59.9,30.22,ENE,77,3.4,3.4,65,0.00,CLR,,0.00,WeatherDisplay:10.37,2013-04-26 05:05:00,
2013-04-26 01:10:00,72.1,59.7,30.22,WNW,282,2.3,0.0,65,0.00,CLR,,0.00,WeatherDisplay:10.37,2013-04-26 05:10:00,
2013-04-26 01:16:00,72.1,59.7,30.22,ESE,106,2.3,0.0,65,0.00,CLR,,0.00,WeatherDisplay:10.37,2013-04-26 05:16:00,
2013-04-26 01:21:00,72.0,60.0,30.22,ESE,106,0.0,0.0,66,0.00,CLR,,0.00,WeatherDisplay:10.37,2013-04-26 05:21:00,
2013-04-26 01:31:00,72.0,60.0,30.19,North,357,0.0,0.0,66,0.00,CLR,,0.00,WeatherDisplay:10.37,2013-04-26 05:31:00,
2013-04-26 01:36:00,72.0,60.0,30.19,North,353,0.0,0.0,66,0.00,CLR,,0.00,WeatherDisplay:10.37,2013-04-26 05:36:00,
2013-04-26 01:46:00,71.8,59.8,30.19,NNW,343,3.4,3.4,66,0.00,CLR,,0.00,WeatherDisplay:10.37,2013-04-26 05:46:00,
2013-04-26 01:51:00,71.8,59.8,30.19,North,357,2.7,2.7,66,0.00,CLR,,0.00,WeatherDisplay:10.37,2013-04-26 05:51:00,
2013-04-26 02:00:00,72.0,60.0,30.19,ESE,104,0.0,0.0,66,0.00,CLR,,0.00,WeatherDisplay:10.37,2013-04-26 06:00:00,
2013-04-26 02:01:00,71.8,59.8,30.19,ESE,112,0.0,0.0,66,0.00,BKN,,0.00,WeatherDisplay:10.37,2013-04-26 06:01:00,
2013-04-26 02:05:00,72.0,60.0,30.19,ESE,104,0.0,0.0,66,0.00,BKN,,0.00,WeatherDisplay:10.37,2013-04-26 06:05:00,
2013-04-26 02:10:00,71.8,59.8,30.19,ESE,112,0.0,0.0,66,0.00,BKN,,0.00,WeatherDisplay:10.37,2013-04-26 06:10:00,
2013-04-26 02:16:00,71.6,59.6,30.19,ESE,112,0.0,0.0,66,0.00,BKN,,0.00,WeatherDisplay:10.37,2013-04-26 06:16:00,
2013-04-26 02:21:00,71.6,59.6,30.19,ESE,112,0.0,0.0,66,0.00,BKN,,0.00,WeatherDisplay:10.37,2013-04-26 06:21:00,
2013-04-26 02:31:00,71.4,59.9,30.19,ESE,112,0.0,0.0,67,0.00,BKN,,0.00,WeatherDisplay:10.37,2013-04-26 06:31:00,
2013-04-26 02:36:00,71.2,59.7,30.19,ESE,112,0.0,0.0,67,0.00,BKN,,0.00,WeatherDisplay:10.37,2013-04-26 06:36:00,
2013-04-26 02:46:00,71.2,59.7,30.19,ESE,113,0.0,0.0,67,0.00,BKN,,0.00,WeatherDisplay:10.37,2013-04-26 06:46:00,
2013-04-26 02:51:00,71.1,59.5,30.19,ESE,113,0.0,0.0,67,0.00,BKN,,0.00,WeatherDisplay:10.37,2013-04-26 06:51:00,
2013-04-26 03:00:00,71.2,60.1,30.19,ESE,113,0.0,0.0,68,0.00,BKN,,0.00,WeatherDisplay:10.37,2013-04-26 07:00:00,
2013-04-26 03:01:00,71.1,60.0,30.19,ESE,113,0.0,0.0,68,0.00,OVC,,0.00,WeatherDisplay:10.37,2013-04-26 07:01:00,
2013-04-26 03:05:00,71.2,60.1,30.19,ESE,113,0.0,0.0,68,0.00,OVC,,0.00,WeatherDisplay:10.37,2013-04-26 07:05:00,
2013-04-26 03:10:00,71.1,60.0,30.19,ESE,113,0.0,0.0,68,0.00,OVC,,0.00,WeatherDisplay:10.37,2013-04-26 07:10:00,
2013-04-26 03:16:00,71.1,60.0,30.19,ESE,113,0.0,0.0,68,0.00,OVC,,0.00,WeatherDisplay:10.37,2013-04-26 07:16:00,
2013-04-26 03:21:00,70.9,59.8,30.19,ESE,113,0.0,0.0,68,0.00,OVC,,0.00,WeatherDisplay:10.37,2013-04-26 07:21:00,
2013-04-26 03:31:00,70.5,59.4,30.19,ESE,113,0.0,0.0,68,0.00,OVC,,0.00,WeatherDisplay:10.37,2013-04-26 07:31:00,
2013-04-26 03:36:00,70.5,59.4,30.19,ESE,113,0.0,0.0,68,0.00,OVC,,0.00,WeatherDisplay:10.37,2013-04-26 07:36:00,
2013-04-26 03:46:00,70.2,59.1,30.16,ESE,113,0.0,0.0,68,0.00,OVC,,0.00,WeatherDisplay:10.37,2013-04-26 07:46:00,
2013-04-26 03:51:00,70.0,58.9,30.16,ESE,113,0.0,0.0,68,0.00,OVC,,0.00,WeatherDisplay:10.37,2013-04-26 07:51:00,
2013-04-26 04:00:00,69.8,59.2,30.16,ESE,113,0.0,0.0,69,0.00,OVC,,0.00,WeatherDisplay:10.37,2013-04-26 08:00:00,
2013-04-26 04:01:00,69.4,58.8,30.16,ESE,113,0.0,0.0,69,0.00,SCT,,0.00,WeatherDisplay:10.37,2013-04-26 08:01:00,
2013-04-26 04:05:00,69.6,59.0,30.16,ESE,113,0.0,0.0,69,0.00,SCT,,0.00,WeatherDisplay:10.37,2013-04-26 08:05:00,
2013-04-26 04:10:00,69.4,58.8,30.16,ESE,113,0.0,0.0,69,0.00,SCT,,0.00,WeatherDisplay:10.37,2013-04-26 08:10:00,
2013-04-26 04:16:00,69.3,58.7,30.16,ESE,113,0.0,0.0,69,0.00,SCT,,0.00,WeatherDisplay:10.37,2013-04-26 08:16:00,
2013-04-26 04:21:00,69.3,59.1,30.16,ESE,113,0.0,0.0,70,0.00,SCT,,0.00,WeatherDisplay:10.37,2013-04-26 08:21:00,
2013-04-26 04:31:00,68.9,58.7,30.16,ESE,113,0.0,0.0,70,0.00,SCT,,0.00,WeatherDisplay:10.37,2013-04-26 08:31:00,
2013-04-26 04:36:00,68.7,58.5,30.16,ESE,113,0.0,0.0,70,0.00,SCT,,0.00,WeatherDisplay:10.37,2013-04-26 08:36:00,
2013-04-26 04:46:00,68.5,58.4,30.16,ESE,113,0.0,0.0,70,0.00,SCT,,0.00,WeatherDisplay:10.37,2013-04-26 08:46:00,
2013-04-26 04:51:00,68.5,58.8,30.16,ESE,113,0.0,0.0,71,0.00,SCT,,0.00,WeatherDisplay:10.37,2013-04-26 08:51:00,
2013-04-26 05:00:00,68.4,58.6,30.16,ESE,113,0.0,0.0,71,0.00,SCT,,0.00,WeatherDisplay:10.37,2013-04-26 09:00:00,
2013-04-26 05:01:00,68.2,58.4,30.16,ESE,113,0.0,0.0,71,0.00,CLR,,0.00,WeatherDisplay:10.37,2013-04-26 09:01:00,
2013-04-26 05:05:00,68.4,58.6,30.16,ESE,113,0.0,0.0,71,0.00,CLR,,0.00,WeatherDisplay:10.37,2013-04-26 09:05:00,
2013-04-26 05:10:00,68.2,58.4,30.16,ESE,113,0.0,0.0,71,0.00,CLR,,0.00,WeatherDisplay:10.37,2013-04-26 09:10:00,
2013-04-26 05:16:00,68.0,58.2,30.13,ESE,113,0.0,0.0,71,0.00,CLR,,0.00,WeatherDisplay:10.37,2013-04-26 09:16:00,
2013-04-26 05:21:00,68.0,58.6,30.13,ESE,113,0.0,0.0,72,0.00,CLR,,0.00,WeatherDisplay:10.37,2013-04-26 09:21:00,
2013-04-26 05:31:00,67.8,58.5,30.16,ESE,113,0.0,0.0,72,0.00,CLR,,0.00,WeatherDisplay:10.37,2013-04-26 09:31:00,
2013-04-26 05:36:00,67.6,58.3,30.16,ESE,113,0.0,0.0,72,0.00,CLR,,0.00,WeatherDisplay:10.37,2013-04-26 09:36:00,
2013-04-26 05:46:00,67.6,58.7,30.16,ESE,113,0.0,0.0,73,0.00,CLR,,0.00,WeatherDisplay:10.37,2013-04-26 09:46:00,
2013-04-26 05:51:00,67.5,58.5,30.16,ESE,113,0.0,0.0,73,0.00,CLR,,0.00,WeatherDisplay:10.37,2013-04-26 09:51:00,
2013-04-26 06:00:00,67.3,58.3,30.16,ESE,113,0.0,0.0,73,0.00,CLR,,0.00,WeatherDisplay:10.37,2013-04-26 10:00:00,
2013-04-26 06:01:00,67.3,58.7,30.16,ESE,113,0.0,0.0,74,0.00,CLR,,0.00,WeatherDisplay:10.37,2013-04-26 10:01:00,
2013-04-26 06:05:00,67.3,58.7,30.16,ESE,113,0.0,0.0,74,0.00,CLR,,0.00,WeatherDisplay:10.37,2013-04-26 10:05:00,
2013-04-26 06:10:00,67.3,58.7,30.16,ESE,113,0.0,0.0,74,0.00,CLR,,0.00,WeatherDisplay:10.37,2013-04-26 10:10:00,
2013-04-26 06:16:00,67.3,58.7,30.16,ESE,113,0.0,0.0,74,0.00,CLR,,0.00,WeatherDisplay:10.37,2013-04-26 10:16:00,
2013-04-26 06:21:00,67.3,58.7,30.16,ESE,113,0.0,0.0,74,0.00,CLR,,0.00,WeatherDisplay:10.37,2013-04-26 10:21:00,
2013-04-26 06:31:00,67.1,58.5,30.16,ESE,113,0.0,0.0,74,0.00,CLR,,0.00,WeatherDisplay:10.37,2013-04-26 10:31:00,
2013-04-26 06:36:00,67.1,58.9,30.16,ESE,113,0.0,0.0,75,0.00,CLR,,0.00,WeatherDisplay:10.37,2013-04-26 10:36:00,
2013-04-26 06:46:00,66.9,58.7,30.16,ESE,113,0.0,0.0,75,0.00,CLR,,0.00,WeatherDisplay:10.37,2013-04-26 10:46:00,
2013-04-26 06:51:00,66.9,58.7,30.16,ESE,113,0.0,0.0,75,0.00,CLR,,0.00,WeatherDisplay:10.37,2013-04-26 10:51:00,
2013-04-26 07:00:00,66.9,58.7,30.19,ESE,113,0.0,0.0,75,0.00,CLR,,0.00,WeatherDisplay:10.37,2013-04-26 11:00:00,
2013-04-26 07:01:00,66.7,58.9,30.19,ESE,113,0.0,0.0,76,0.00,CLR,,0.00,WeatherDisplay:10.37,2013-04-26 11:01:00,
2013-04-26 07:05:00,66.7,58.9,30.19,ESE,112,0.0,0.0,76,0.00,CLR,,0.00,WeatherDisplay:10.37,2013-04-26 11:05:00,
2013-04-26 07:10:00,66.7,58.9,30.19,ESE,113,0.0,0.0,76,0.00,CLR,,0.00,WeatherDisplay:10.37,2013-04-26 11:10:00,
2013-04-26 07:16:00,66.7,58.9,30.19,ESE,113,0.0,0.0,76,0.00,CLR,,0.00,WeatherDisplay:10.37,2013-04-26 11:16:00,
2013-04-26 07:21:00,66.7,58.9,30.19,ESE,113,0.0,0.0,76,0.00,CLR,,0.00,WeatherDisplay:10.37,2013-04-26 11:21:00,
2013-04-26 07:31:00,67.1,59.6,30.19,ESE,113,0.0,0.0,77,0.00,CLR,,0.00,WeatherDisplay:10.37,2013-04-26 11:31:00,
2013-04-26 07:36:00,67.3,59.8,30.19,ESE,113,0.0,0.0,77,0.00,CLR,,0.00,WeatherDisplay:10.37,2013-04-26 11:36:00,
2013-04-26 07:46:00,67.6,60.5,30.19,ESE,113,0.0,0.0,78,0.00,CLR,,0.00,WeatherDisplay:10.37,2013-04-26 11:46:00,
2013-04-26 07:51:00,67.8,60.7,30.19,ESE,113,0.0,0.0,78,0.00,CLR,,0.00,WeatherDisplay:10.37,2013-04-26 11:51:00,
2013-04-26 08:00:00,68.4,61.2,30.19,ESE,113,0.0,0.0,78,0.00,CLR,,0.00,WeatherDisplay:10.37,2013-04-26 12:00:00,
2013-04-26 08:01:00,69.1,62.3,30.19,ESE,113,0.0,0.0,79,0.00,CLR,,0.00,WeatherDisplay:10.37,2013-04-26 12:01:00,
2013-04-26 08:05:00,68.7,61.6,30.19,ESE,113,0.0,0.0,78,0.00,CLR,,0.00,WeatherDisplay:10.37,2013-04-26 12:05:00,
2013-04-26 08:10:00,69.1,62.3,30.19,ESE,112,0.0,0.0,79,0.00,CLR,,0.00,WeatherDisplay:10.37,2013-04-26 12:10:00,
2013-04-26 08:16:00,69.4,62.6,30.19,ESE,113,0.0,0.0,79,0.00,CLR,,0.00,WeatherDisplay:10.37,2013-04-26 12:16:00,
2013-04-26 08:21:00,70.0,63.2,30.19,ESE,112,0.0,0.0,79,0.00,CLR,,0.00,WeatherDisplay:10.37,2013-04-26 12:21:00,
2013-04-26 08:31:00,70.7,63.9,30.19,SE,137,0.0,0.0,79,0.00,CLR,,0.00,WeatherDisplay:10.37,2013-04-26 12:31:00,
2013-04-26 08:36:00,71.2,64.8,30.19,SSE,149,4.0,4.0,80,0.00,CLR,,0.00,WeatherDisplay:10.37,2013-04-26 12:36:00,
2013-04-26 08:46:00,72.3,65.4,30.22,SSW,198,0.0,0.0,79,0.00,CLR,,0.00,WeatherDisplay:10.37,2013-04-26 12:46:00,
2013-04-26 08:51:00,72.9,63.7,30.22,SE,138,0.0,0.0,73,0.00,CLR,,0.00,WeatherDisplay:10.37,2013-04-26 12:51:00,
2013-04-26 09:00:00,74.3,63.5,30.22,South,183,0.0,0.0,69,0.00,CLR,,0.00,WeatherDisplay:10.37,2013-04-26 13:00:00,
2013-04-26 09:01:00,75.4,60.5,30.22,SSE,166,3.4,0.0,60,0.00,CLR,,0.00,WeatherDisplay:10.37,2013-04-26 13:01:00,
2013-04-26 09:05:00,74.8,63.6,30.22,South,180,0.0,0.0,68,0.00,CLR,,0.00,WeatherDisplay:10.37,2013-04-26 13:05:00,
2013-04-26 09:10:00,75.2,60.8,30.22,SSE,167,3.4,3.4,61,0.00,CLR,,0.00,WeatherDisplay:10.37,2013-04-26 13:10:00,
2013-04-26 09:16:00,75.9,61.0,30.22,South,169,3.4,3.4,60,0.00,CLR,,0.00,WeatherDisplay:10.37,2013-04-26 13:16:00,
2013-04-26 09:21:00,76.3,57.4,30.22,SW,235,3.1,0.0,52,0.00,CLR,,0.00,WeatherDisplay:10.37,2013-04-26 13:21:00,
2013-04-26 09:31:00,77.0,58.0,30.22,SSE,150,3.4,3.4,52,0.00,CLR,,0.00,WeatherDisplay:10.37,2013-04-26 13:31:00,
2013-04-26 09:36:00,77.5,58.5,30.22,East,89,2.3,2.3,52,0.00,CLR,,0.00,WeatherDisplay:10.37,2013-04-26 13:36:00,
2013-04-26 09:46:00,78.3,57.5,30.22,SSE,164,3.6,3.6,49,0.00,CLR,,0.00,WeatherDisplay:10.37,2013-04-26 13:46:00,
2013-04-26 09:51:00,78.4,55.3,30.22,West,260,3.6,3.6,45,0.00,CLR,,0.00,WeatherDisplay:10.37,2013-04-26 13:51:00,
2013-04-26 10:00:00,78.6,55.5,30.22,South,169,4.0,4.0,45,0.00,CLR,,0.00,WeatherDisplay:10.37,2013-04-26 14:00:00,
2013-04-26 10:01:00,79.3,55.5,30.22,SW,214,2.3,0.0,44,0.00,CLR,,0.00,WeatherDisplay:10.37,2013-04-26 14:01:00,
2013-04-26 10:05:00,79.0,55.8,30.22,SSW,209,4.9,4.9,45,0.00,CLR,,0.00,WeatherDisplay:10.37,2013-04-26 14:05:00,
2013-04-26 10:10:00,79.2,55.4,30.22,SW,214,3.4,3.4,44,0.00,CLR,,0.00,WeatherDisplay:10.37,2013-04-26 14:10:00,
2013-04-26 10:16:00,79.7,56.5,30.25,North,2,3.4,3.4,45,0.00,CLR,,0.00,WeatherDisplay:10.37,2013-04-26 14:16:00,
2013-04-26 10:21:00,79.7,55.2,30.25,North,2,4.6,4.6,43,0.00,CLR,,0.00,WeatherDisplay:10.37,2013-04-26 14:21:00,
2013-04-26 10:31:00,79.7,54.6,30.25,North,357,2.3,0.0,42,0.00,CLR,,0.00,WeatherDisplay:10.37,2013-04-26 14:31:00,
2013-04-26 10:36:00,80.1,54.9,30.25,SE,128,3.4,3.4,42,0.00,CLR,,0.00,WeatherDisplay:10.37,2013-04-26 14:36:00,
2013-04-26 10:46:00,81.1,56.5,30.25,East,93,4.6,4.6,43,0.00,CLR,,0.00,WeatherDisplay:10.37,2013-04-26 14:46:00,
2013-04-26 10:51:00,81.7,56.4,30.25,South,173,4.0,4.0,42,0.00,CLR,,0.00,WeatherDisplay:10.37,2013-04-26 14:51:00,
2013-04-26 11:00:00,81.3,54.7,30.25,SW,235,3.4,3.4,40,0.00,CLR,,0.00,WeatherDisplay:10.37,2013-04-26 15:00:00,
2013-04-26 11:01:00,81.9,55.2,30.25,East,96,4.6,4.6,40,0.00,CLR,,0.00,WeatherDisplay:10.37,2013-04-26 15:01:00,
2013-04-26 11:05:00,81.3,54.7,30.25,SE,124,3.6,3.6,40,0.00,CLR,,0.00,WeatherDisplay:10.37,2013-04-26 15:05:00,
2013-04-26 11:10:00,81.7,55.0,30.25,ENE,75,4.6,4.6,40,0.00,CLR,,0.00,WeatherDisplay:10.37,2013-04-26 15:10:00,
2013-04-26 11:16:00,82.4,55.7,30.25,NNW,328,3.4,3.4,40,0.00,CLR,,0.00,WeatherDisplay:10.37,2013-04-26 15:16:00,
2013-04-26 11:21:00,82.9,55.4,30.25,North,0,3.4,3.4,39,0.00,CLR,,0.00,WeatherDisplay:10.37,2013-04-26 15:21:00,
2013-04-26 11:31:00,83.8,54.8,30.25,North,0,5.8,5.8,37,0.00,CLR,,0.00,WeatherDisplay:10.37,2013-04-26 15:31:00,
2013-04-26 11:36:00,84.0,54.9,30.25,East,86,2.3,0.0,37,0.00,CLR,,0.00,WeatherDisplay:10.37,2013-04-26 15:36:00,
2013-04-26 11:46:00,84.6,55.4,30.25,NNW,329,5.8,5.8,37,0.00,CLR,,0.00,WeatherDisplay:10.37,2013-04-26 15:46:00,
2013-04-26 11:51:00,84.6,55.4,30.25,NW,314,5.8,5.8,37,0.00,CLR,,0.00,WeatherDisplay:10.37,2013-04-26 15:51:00,
2013-04-26 12:00:00,84.9,55.7,30.25,ESE,102,3.4,3.4,37,0.00,CLR,,0.00,WeatherDisplay:10.37,2013-04-26 16:00:00,
2013-04-26 12:01:00,85.5,55.5,30.25,North,0,3.6,3.6,36,0.00,CLR,,0.00,WeatherDisplay:10.37,2013-04-26 16:01:00,
2013-04-26 12:05:00,84.9,53.4,30.25,ESE,112,3.4,3.4,34,0.00,CLR,,0.00,WeatherDisplay:10.37,2013-04-26 16:05:00,
2013-04-26 12:10:00,85.3,55.3,30.25,ESE,112,3.6,3.6,36,0.00,CLR,,0.00,WeatherDisplay:10.37,2013-04-26 16:10:00,
2013-04-26 12:16:00,86.0,53.5,30.25,North,353,5.8,5.8,33,0.00,CLR,,0.00,WeatherDisplay:10.37,2013-04-26 16:16:00,
2013-04-26 12:21:00,86.7,53.3,30.25,East,87,5.8,5.8,32,0.00,CLR,,0.00,WeatherDisplay:10.37,2013-04-26 16:21:00,
2013-04-26 12:31:00,87.1,53.6,30.25,SE,125,10.3,10.3,32,0.00,CLR,,0.00,WeatherDisplay:10.37,2013-04-26 16:31:00,
2013-04-26 12:36:00,87.6,53.2,30.25,SE,124,3.6,3.6,31,0.00,CLR,,0.00,WeatherDisplay:10.37,2013-04-26 16:36:00,
2013-04-26 12:46:00,88.7,53.3,30.22,East,98,5.8,5.8,30,0.00,CLR,,0.00,WeatherDisplay:10.37,2013-04-26 16:46:00,
2013-04-26 12:51:00,89.2,51.9,30.22,SSW,205,5.8,5.8,28,0.00,CLR,,0.00,WeatherDisplay:10.37,2013-04-26 16:51:00,
2013-04-26 13:00:00,88.9,51.6,30.22,East,86,9.2,9.2,28,0.00,CLR,,0.00,WeatherDisplay:10.37,2013-04-26 17:00:00,
2013-04-26 13:01:00,89.2,52.8,30.22,SE,144,5.8,5.8,29,0.00,CLR,,0.00,WeatherDisplay:10.37,2013-04-26 17:01:00,
2013-04-26 13:05:00,88.9,51.6,30.22,North,357,3.4,3.4,28,0.00,CLR,,0.00,WeatherDisplay:10.37,2013-04-26 17:05:00,
2013-04-26 13:10:00,89.2,52.8,30.22,SE,133,4.0,4.0,29,0.00,CLR,,0.00,WeatherDisplay:10.37,2013-04-26 17:10:00,
2013-04-26 13:16:00,89.4,53.0,30.22,East,81,2.7,2.7,29,0.00,CLR,,0.00,WeatherDisplay:10.37,2013-04-26 17:16:00,
2013-04-26 13:21:00,89.2,51.9,30.22,SSE,150,8.1,8.1,28,0.00,CLR,,0.00,WeatherDisplay:10.37,2013-04-26 17:21:00,
2013-04-26 13:31:00,89.4,52.0,30.22,ENE,78,5.8,5.8,28,0.00,CLR,,0.00,WeatherDisplay:10.37,2013-04-26 17:31:00,
2013-04-26 13:36:00,89.4,53.0,30.22,ESE,108,7.6,7.6,29,0.00,CLR,,0.00,WeatherDisplay:10.37,2013-04-26 17:36:00,
2013-04-26 13:46:00,90.1,52.6,30.22,East,98,5.8,5.8,28,0.00,CLR,,0.00,WeatherDisplay:10.37,2013-04-26 17:46:00,
2013-04-26 13:51:00,90.3,50.8,30.22,NE,34,8.1,8.1,26,0.00,CLR,,0.00,WeatherDisplay:10.37,2013-04-26 17:51:00,
2013-04-26 14:00:00,90.9,52.3,30.22,South,172,5.8,5.8,27,0.00,CLR,,0.00,WeatherDisplay:10.37,2013-04-26 18:00:00,
2013-04-26 14:01:00,91.0,52.4,30.22,South,172,5.8,5.8,27,0.00,CLR,,0.00,WeatherDisplay:10.37,2013-04-26 18:01:00,
2013-04-26 14:05:00,91.0,50.3,30.22,ENE,69,4.6,4.6,25,0.00,CLR,,0.00,WeatherDisplay:10.37,2013-04-26 18:05:00,
2013-04-26 14:10:00,91.0,52.4,30.22,SE,140,5.8,5.8,27,0.00,CLR,,0.00,WeatherDisplay:10.37,2013-04-26 18:10:00,
2013-04-26 14:16:00,91.2,51.5,30.19,SW,236,3.4,3.4,26,0.00,CLR,,0.00,WeatherDisplay:10.37,2013-04-26 18:16:00,
2013-04-26 14:21:00,91.0,50.3,30.19,NE,49,2.7,0.0,25,0.00,CLR,,0.00,WeatherDisplay:10.37,2013-04-26 18:21:00,
2013-04-26 14:31:00,91.6,48.5,30.22,NE,46,3.4,0.0,23,0.00,CLR,,0.00,WeatherDisplay:10.37,2013-04-26 18:31:00,
2013-04-26 14:36:00,90.7,48.9,30.22,East,79,3.4,3.4,24,0.00,CLR,,0.00,WeatherDisplay:10.37,2013-04-26 18:36:00,
2013-04-26 14:46:00,90.7,52.1,30.22,East,91,4.6,4.6,27,0.00,CLR,,0.00,WeatherDisplay:10.37,2013-04-26 18:46:00,
2013-04-26 14:51:00,91.0,50.3,30.22,East,98,5.8,5.8,25,0.00,CLR,,0.00,WeatherDisplay:10.37,2013-04-26 18:51:00,
2013-04-26 15:00:00,90.3,49.7,30.22,SW,215,2.7,0.0,25,0.00,CLR,,0.00,WeatherDisplay:10.37,2013-04-26 19:00:00,
2013-04-26 15:01:00,90.5,52.0,30.22,West,278,3.4,3.4,27,0.00,FEW,,0.00,WeatherDisplay:10.37,2013-04-26 19:01:00,
2013-04-26 15:05:00,90.1,49.6,30.22,SSW,201,3.6,3.6,25,0.00,FEW,,0.00,WeatherDisplay:10.37,2013-04-26 19:05:00,
2013-04-26 15:10:00,90.5,49.9,30.22,SSW,203,3.4,3.4,25,0.00,FEW,,0.00,WeatherDisplay:10.37,2013-04-26 19:10:00,
2013-04-26 15:16:00,90.1,52.6,30.19,West,279,5.8,5.8,28,0.00,FEW,,0.00,WeatherDisplay:10.37,2013-04-26 19:16:00,
2013-04-26 15:21:00,88.2,51.9,30.19,NNW,343,5.8,5.8,29,0.00,FEW,,0.00,WeatherDisplay:10.37,2013-04-26 19:21:00,
2013-04-26 15:31:00,87.1,51.9,30.19,NW,326,5.8,5.8,30,0.00,FEW,,0.00,WeatherDisplay:10.37,2013-04-26 19:31:00,
2013-04-26 15:36:00,86.7,52.5,30.19,South,187,3.4,3.4,31,0.00,FEW,,0.00,WeatherDisplay:10.37,2013-04-26 19:36:00,
2013-04-26 15:46:00,85.8,53.4,30.19,West,273,5.8,5.8,33,0.00,FEW,,0.00,WeatherDisplay:10.37,2013-04-26 19:46:00,
2013-04-26 15:51:00,85.8,55.0,30.19,North,353,10.3,10.3,35,0.00,FEW,,0.00,WeatherDisplay:10.37,2013-04-26 19:51:00,
2013-04-26 16:00:00,87.6,54.1,30.19,NE,38,8.3,8.3,32,0.00,FEW,,0.00,WeatherDisplay:10.37,2013-04-26 20:00:00,
2013-04-26 16:01:00,86.9,53.5,30.19,NNE,15,8.1,8.1,32,0.00,CLR,,0.00,WeatherDisplay:10.37,2013-04-26 20:01:00,
2013-04-26 16:05:00,87.3,53.8,30.19,WSW,243,8.1,8.1,32,0.00,CLR,,0.00,WeatherDisplay:10.37,2013-04-26 20:05:00,
2013-04-26 16:10:00,86.9,53.5,30.19,NNW,339,8.3,8.3,32,0.00,CLR,,0.00,WeatherDisplay:10.37,2013-04-26 20:10:00,
2013-04-26 16:16:00,87.1,54.5,30.16,North,357,6.3,6.3,33,0.00,CLR,,0.00,WeatherDisplay:10.37,2013-04-26 20:16:00,
2013-04-26 16:21:00,86.9,53.5,30.16,North,353,5.8,5.8,32,0.00,CLR,,0.00,WeatherDisplay:10.37,2013-04-26 20:21:00,
2013-04-26 16:31:00,87.3,53.8,30.19,North,349,8.1,8.1,32,0.00,CLR,,0.00,WeatherDisplay:10.37,2013-04-26 20:31:00,
2013-04-26 16:36:00,88.2,54.6,30.19,North,0,5.8,5.8,32,0.00,CLR,,0.00,WeatherDisplay:10.37,2013-04-26 20:36:00,
2013-04-26 16:46:00,87.6,55.0,30.19,WNW,284,6.3,6.3,33,0.00,CLR,,0.00,WeatherDisplay:10.37,2013-04-26 20:46:00,
2013-04-26 16:51:00,87.3,53.8,30.19,WNW,288,5.4,5.4,32,0.00,CLR,,0.00,WeatherDisplay:10.37,2013-04-26 20:51:00,
2013-04-26 17:00:00,86.2,56.1,30.19,NNW,330,6.3,6.3,36,0.00,CLR,,0.00,WeatherDisplay:10.37,2013-04-26 21:00:00,
2013-04-26 17:01:00,86.7,55.0,30.19,NW,311,5.8,5.8,34,0.00,CLR,,0.00,WeatherDisplay:10.37,2013-04-26 21:01:00,
2013-04-26 17:05:00,86.0,55.2,30.19,WNW,284,7.2,7.2,35,0.00,CLR,,0.00,WeatherDisplay:10.37,2013-04-26 21:05:00,
2013-04-26 17:10:00,86.7,55.0,30.19,NNE,17,9.2,9.2,34,0.00,CLR,,0.00,WeatherDisplay:10.37,2013-04-26 21:10:00,
2013-04-26 17:16:00,86.7,55.0,30.19,North,3,5.8,5.8,34,0.00,CLR,,0.00,WeatherDisplay:10.37,2013-04-26 21:16:00,
2013-04-26 17:21:00,86.4,56.3,30.19,NNE,16,8.1,8.1,36,0.00,CLR,,0.00,WeatherDisplay:10.37,2013-04-26 21:21:00,
2013-04-26 17:31:00,84.7,55.6,30.19,NW,308,8.1,8.1,37,0.00,CLR,,0.00,WeatherDisplay:10.37,2013-04-26 21:31:00,
2013-04-26 17:36:00,85.3,57.5,30.19,West,265,8.1,8.1,39,0.00,CLR,,0.00,WeatherDisplay:10.37,2013-04-26 21:36:00,
2013-04-26 17:46:00,86.2,56.9,30.19,WNW,284,8.1,8.1,37,0.00,CLR,,0.00,WeatherDisplay:10.37,2013-04-26 21:46:00,
2013-04-26 17:51:00,85.8,57.3,30.19,NW,316,6.9,6.9,38,0.00,CLR,,0.00,WeatherDisplay:10.37,2013-04-26 21:51:00,
2013-04-26 18:00:00,85.8,58.0,30.19,NW,320,9.2,9.2,39,0.00,CLR,,0.00,WeatherDisplay:10.37,2013-04-26 22:00:00,
2013-04-26 18:01:00,85.8,57.3,30.19,WNW,302,7.6,7.6,38,0.00,CLR,,0.00,WeatherDisplay:10.37,2013-04-26 22:01:00,
2013-04-26 18:05:00,86.0,57.4,30.19,NW,305,8.3,8.3,38,0.00,CLR,,0.00,WeatherDisplay:10.37,2013-04-26 22:05:00,
2013-04-26 18:10:00,85.8,57.3,30.19,NNW,332,5.8,5.8,38,0.00,CLR,,0.00,WeatherDisplay:10.37,2013-04-26 22:10:00,
2013-04-26 18:16:00,85.1,57.4,30.19,WNW,298,8.1,8.1,39,0.00,CLR,,0.00,WeatherDisplay:10.37,2013-04-26 22:16:00,
2013-04-26 18:21:00,84.6,57.6,30.19,West,279,8.1,8.1,40,0.00,CLR,,0.00,WeatherDisplay:10.37,2013-04-26 22:21:00,
2013-04-26 18:31:00,84.0,57.8,30.19,NW,313,5.8,5.8,41,0.00,CLR,,0.00,WeatherDisplay:10.37,2013-04-26 22:31:00,
2013-04-26 18:36:00,83.8,56.9,30.19,NW,316,6.3,6.3,40,0.00,CLR,,0.00,WeatherDisplay:10.37,2013-04-26 22:36:00,
2013-04-26 18:46:00,82.4,57.0,30.19,NW,326,7.2,7.2,42,0.00,CLR,,0.00,WeatherDisplay:10.37,2013-04-26 22:46:00,
2013-04-26 18:51:00,82.4,57.7,30.19,WNW,288,6.3,6.3,43,0.00,CLR,,0.00,WeatherDisplay:10.37,2013-04-26 22:51:00,
2013-04-26 19:00:00,83.1,58.3,30.19,NW,307,8.1,8.1,43,0.00,CLR,,0.00,WeatherDisplay:10.37,2013-04-26 23:00:00,
2013-04-26 19:01:00,81.7,57.6,30.19,NW,325,6.9,6.9,44,0.00,CLR,,0.00,WeatherDisplay:10.37,2013-04-26 23:01:00,
2013-04-26 19:05:00,82.6,57.2,30.19,NNE,15,6.9,6.9,42,0.00,CLR,,0.00,WeatherDisplay:10.37,2013-04-26 23:05:00,
2013-04-26 19:10:00,81.7,57.6,30.19,North,357,6.9,6.9,44,0.00,CLR,,0.00,WeatherDisplay:10.37,2013-04-26 23:10:00,
2013-04-26 19:16:00,81.3,57.9,30.19,NW,311,8.1,8.1,45,0.00,CLR,,0.00,WeatherDisplay:10.37,2013-04-26 23:16:00,
2013-04-26 19:21:00,81.0,57.6,30.19,North,0,9.2,9.2,45,0.00,CLR,,0.00,WeatherDisplay:10.37,2013-04-26 23:21:00,
2013-04-26 19:31:00,80.1,58.0,30.16,North,353,5.8,5.8,47,0.00,CLR,,0.00,WeatherDisplay:10.37,2013-04-26 23:31:00,
2013-04-26 19:36:00,79.7,57.7,30.16,NNW,335,8.7,8.7,47,0.00,CLR,,0.00,WeatherDisplay:10.37,2013-04-26 23:36:00,
2013-04-26 19:46:00,79.2,58.4,30.19,NNW,342,5.8,5.8,49,0.00,CLR,,0.00,WeatherDisplay:10.37,2013-04-26 23:46:00,
2013-04-26 19:51:00,78.8,58.6,30.19,NNW,346,8.1,8.1,50,0.00,CLR,,0.00,WeatherDisplay:10.37,2013-04-26 23:51:00,
2013-04-26 20:01:00,78.1,60.1,30.19,North,353,5.8,5.8,54,0.00,CLR,,0.00,WeatherDisplay:10.37,2013-04-27 00:01:00,
2013-04-26 20:05:00,78.4,59.9,30.19,North,353,8.1,8.1,53,0.00,CLR,,0.00,WeatherDisplay:10.37,2013-04-27 00:05:00,
2013-04-26 20:10:00,78.1,60.1,30.19,North,357,8.1,8.1,54,0.00,CLR,,0.00,WeatherDisplay:10.37,2013-04-27 00:10:00,
2013-04-26 20:16:00,77.9,60.4,30.19,North,353,6.9,6.9,55,0.00,CLR,,0.00,WeatherDisplay:10.37,2013-04-27 00:16:00,
2013-04-26 20:21:00,77.7,60.3,30.19,North,2,5.8,5.8,55,0.00,CLR,,0.00,WeatherDisplay:10.37,2013-04-27 00:21:00,
2013-04-26 20:31:00,77.5,60.6,30.19,NW,308,5.8,5.8,56,0.00,CLR,,0.00,WeatherDisplay:10.37,2013-04-27 00:31:00,
2013-04-26 20:36:00,77.5,61.1,30.19,North,0,4.9,4.9,57,0.00,CLR,,0.00,WeatherDisplay:10.37,2013-04-27 00:36:00,
2013-04-26 20:46:00,77.2,60.8,30.19,NNW,340,7.6,7.6,57,0.00,CLR,,0.00,WeatherDisplay:10.37,2013-04-27 00:46:00,
2013-04-26 20:51:00,77.0,60.6,30.19,NNW,330,11.5,11.5,57,0.00,CLR,,0.00,WeatherDisplay:10.37,2013-04-27 00:51:00,
2013-04-26 21:00:00,76.8,60.9,30.19,NNE,19,8.1,8.1,58,0.00,CLR,,0.00,WeatherDisplay:10.37,2013-04-27 01:00:00,
2013-04-26 21:01:00,76.8,61.4,30.19,NNW,334,7.6,7.6,59,0.00,CLR,,0.00,WeatherDisplay:10.37,2013-04-27 01:01:00,
2013-04-26 21:05:00,76.8,60.9,30.19,North,353,8.1,8.1,58,0.00,CLR,,0.00,WeatherDisplay:10.37,2013-04-27 01:05:00,
2013-04-26 21:10:00,76.8,61.4,30.19,NNE,21,8.1,8.1,59,0.00,CLR,,0.00,WeatherDisplay:10.37,2013-04-27 01:10:00,
2013-04-26 21:16:00,76.8,61.4,30.19,NNW,345,5.8,5.8,59,0.00,CLR,,0.00,WeatherDisplay:10.37,2013-04-27 01:16:00,
2013-04-26 21:21:00,76.6,61.2,30.19,North,353,3.4,3.6,59,0.00,CLR,,0.00,WeatherDisplay:10.37,2013-04-27 01:21:00,
2013-04-26 21:31:00,76.6,61.7,30.19,NNW,337,8.1,8.1,60,0.00,CLR,,0.00,WeatherDisplay:10.37,2013-04-27 01:31:00,
2013-04-26 21:36:00,76.5,62.0,30.19,North,10,8.1,8.1,61,0.00,CLR,,0.00,WeatherDisplay:10.37,2013-04-27 01:36:00,
2013-04-26 21:46:00,76.3,62.3,30.22,North,0,4.0,4.0,62,0.00,CLR,,0.00,WeatherDisplay:10.37,2013-04-27 01:46:00,
2013-04-26 21:51:00,76.1,62.1,30.22,North,4,5.8,5.8,62,0.00,CLR,,0.00,WeatherDisplay:10.37,2013-04-27 01:51:00,
2013-04-26 22:00:00,75.9,61.0,30.22,North,0,5.8,5.8,60,0.00,CLR,,0.00,WeatherDisplay:10.37,2013-04-27 02:00:00,
2013-04-26 22:01:00,75.9,60.1,30.22,NNE,30,2.7,0.0,58,0.00,FEW,,0.00,WeatherDisplay:10.37,2013-04-27 02:01:00,
2013-04-26 22:05:00,75.9,60.6,30.22,North,4,5.8,5.8,59,0.00,FEW,,0.00,WeatherDisplay:10.37,2013-04-27 02:05:00,
2013-04-26 22:10:00,75.9,60.1,30.22,ENE,57,2.3,0.0,58,0.00,FEW,,0.00,WeatherDisplay:10.37,2013-04-27 02:10:00,
2013-04-26 22:16:00,75.7,59.9,30.22,NNW,334,5.8,5.8,58,0.00,FEW,,0.00,WeatherDisplay:10.37,2013-04-27 02:16:00,
2013-04-26 22:21:00,75.7,58.9,30.22,NNW,337,8.3,8.3,56,0.00,FEW,,0.00,WeatherDisplay:10.37,2013-04-27 02:21:00,
2013-04-26 22:31:00,75.9,58.6,30.22,NNE,16,5.8,5.8,55,0.00,FEW,,0.00,WeatherDisplay:10.37,2013-04-27 02:31:00,
2013-04-26 22:36:00,76.1,58.8,30.22,North,11,4.6,4.6,55,0.00,FEW,,0.00,WeatherDisplay:10.37,2013-04-27 02:36:00,
2013-04-26 22:46:00,76.3,57.9,30.22,NNW,348,4.0,4.0,53,0.00,FEW,,0.00,WeatherDisplay:10.37,2013-04-27 02:46:00,
2013-04-26 22:51:00,76.3,57.4,30.22,North,357,3.4,3.4,52,0.00,FEW,,0.00,WeatherDisplay:10.37,2013-04-27 02:51:00,
2013-04-26 23:00:00,76.5,57.5,30.22,North,4,3.4,3.4,52,0.00,FEW,,0.00,WeatherDisplay:10.37,2013-04-27 03:00:00,
2013-04-26 23:01:00,76.3,57.4,30.22,East,91,0.0,0.0,52,0.00,SCT,,0.00,WeatherDisplay:10.37,2013-04-27 03:01:00,
2013-04-26 23:05:00,76.3,57.4,30.22,North,4,3.6,3.6,52,0.00,SCT,,0.00,WeatherDisplay:10.37,2013-04-27 03:05:00,
2013-04-26 23:10:00,76.3,57.4,30.22,East,92,0.0,0.0,52,0.00,SCT,,0.00,WeatherDisplay:10.37,2013-04-27 03:10:00,
2013-04-26 23:16:00,76.1,57.2,30.22,NNW,344,4.0,4.0,52,0.00,SCT,,0.00,WeatherDisplay:10.37,2013-04-27 03:16:00,
2013-04-26 23:21:00,75.9,57.0,30.22,ESE,104,2.3,0.0,52,0.00,SCT,,0.00,WeatherDisplay:10.37,2013-04-27 03:21:00,
2013-04-26 23:31:00,75.2,56.4,30.22,ESE,104,0.0,0.0,52,0.00,SCT,,0.00,WeatherDisplay:10.37,2013-04-27 03:31:00,
2013-04-26 23:36:00,74.8,56.6,30.22,ESE,104,0.0,0.0,53,0.00,SCT,,0.00,WeatherDisplay:10.37,2013-04-27 03:36:00,
2013-04-26 23:46:00,74.3,56.6,30.22,ESE,105,0.0,0.0,54,0.00,SCT,,0.00,WeatherDisplay:10.37,2013-04-27 03:46:00,
2013-04-26 23:51:00,74.1,56.9,30.22,ESE,104,0.0,0.0,55,0.00,SCT,,0.00,WeatherDisplay:10.37,2013-04-27 03:51:00,